Time;durP1;ratioP1;P1;durP2;ratioP2;P2;SDS_P1;SDS_P2;PMS_P1;PMS_P2;Temp;Humidity;BMP_temperature;BMP_pressure;BME280_temperature;BME280_humidity;BME280_pressure;Samples;Min_cycle;Max_cycle;Signal;HPM_P1;HPM_P2
2022/10/11 00:00:44;;;;;;;17.58;12.98;;;18.10;89.70;;;;;;6336961;22;20071;-79
2022/10/11 00:03:10;;;;;;;22.15;12.98;;;18.10;89.70;;;;;;6336325;22;20002;-80
2022/10/11 00:05:36;;;;;;;20.35;11.55;;;18.10;89.80;;;;;;6337047;22;20282;-80
2022/10/11 00:08:04;;;;;;;18.13;12.25;;;18.10;89.90;;;;;;6311407;22;20007;-80
2022/10/11 00:10:33;;;;;;;20.00;12.93;;;18.10;89.90;;;;;;6338177;22;20065;-79
2022/10/11 00:12:59;;;;;;;19.73;14.48;;;18.10;90.00;;;;;;6311754;22;20003;-79
2022/10/11 00:15:24;;;;;;;19.83;13.80;;;18.00;89.90;;;;;;6338821;22;20405;-79
2022/10/11 00:17:50;;;;;;;20.58;13.82;;;17.90;90.00;;;;;;6339327;22;20328;-80
2022/10/11 00:20:16;;;;;;;20.80;14.43;;;17.90;90.10;;;;;;6338364;22;20089;-79
2022/10/11 00:22:42;;;;;;;20.15;14.02;;;17.90;90.00;;;;;;6339243;22;19994;-79
2022/10/11 00:25:10;;;;;;;21.60;14.30;;;17.90;89.60;;;;;;6311344;22;20010;-79
2022/10/11 00:27:36;;;;;;;22.50;14.00;;;17.90;89.60;;;;;;6339084;22;20448;-78
2022/10/11 00:30:04;;;;;;;24.40;15.05;;;17.80;90.30;;;;;;6311709;22;19999;-79
2022/10/11 00:32:33;;;;;;;21.88;13.65;;;17.70;90.20;;;;;;6338900;22;19995;-78
2022/10/11 00:35:03;;;;;;;20.60;14.38;;;17.70;90.40;;;;;;6339461;22;20409;-78
2022/10/11 00:37:30;;;;;;;22.75;15.13;;;17.60;90.60;;;;;;6339391;22;20048;-78
2022/10/11 00:39:56;;;;;;;21.88;13.65;;;17.60;90.60;;;;;;6338434;22;20007;-77
2022/10/11 00:42:22;;;;;;;21.15;14.13;;;17.50;90.80;;;;;;6311873;22;20325;-78
2022/10/11 00:44:49;;;;;;;21.65;14.38;;;17.40;90.90;;;;;;6339753;22;19998;-78
2022/10/11 00:47:21;;;;;;;24.40;14.75;;;17.30;91.00;;;;;;6339435;22;19999;-78
2022/10/11 00:49:56;;;;;;;19.60;13.95;;;17.30;91.10;;;;;;6310646;22;20006;-77
2022/10/11 00:52:33;;;;;;;29.33;15.00;;;17.20;91.40;;;;;;6338290;22;20367;-78
2022/10/11 00:55:03;;;;;;;23.25;13.95;;;17.10;91.40;;;;;;6339302;22;20002;-78
2022/10/11 00:57:32;;;;;;;25.75;14.05;;;17.10;91.40;;;;;;6338798;22;20338;-78
2022/10/11 00:59:59;;;;;;;19.58;14.18;;;17.10;91.50;;;;;;6311026;22;20433;-79
2022/10/11 01:02:26;;;;;;;18.58;14.20;;;17.10;91.30;;;;;;6337140;22;20294;-79
2022/10/11 01:04:52;;;;;;;25.70;14.85;;;17.10;91.40;;;;;;6339474;22;20318;-78
2022/10/11 01:07:20;;;;;;;29.75;16.83;;;17.00;91.40;;;;;;6339404;22;20003;-79
2022/10/11 01:09:45;;;;;;;21.67;15.15;;;16.80;91.70;;;;;;6339020;22;20003;-80
2022/10/11 01:12:17;;;;;;;21.85;14.80;;;16.80;92.00;;;;;;6339415;22;20076;-80
2022/10/11 01:14:58;;;;;;;21.73;14.77;;;16.70;92.10;;;;;;6339560;22;19999;-80
2022/10/11 01:17:50;;;;;;;22.30;14.23;;;16.70;92.10;;;;;;6339025;22;20480;-80
2022/10/11 01:20:34;;;;;;;21.27;14.90;;;16.80;92.00;;;;;;6338715;22;20555;-80
2022/10/11 01:23:27;;;;;;;19.35;14.05;;;16.80;92.00;;;;;;6339225;22;20022;-79
2022/10/11 01:26:02;;;;;;;21.23;13.90;;;16.80;92.00;;;;;;6338942;22;20002;-80
2022/10/11 01:28:41;;;;;;;32.40;15.23;;;16.70;92.10;;;;;;6338383;22;20003;-80
2022/10/11 01:31:25;;;;;;;21.05;13.25;;;16.70;92.10;;;;;;6339001;22;19999;-81
2022/10/11 01:34:15;;;;;;;22.73;14.23;;;16.70;92.20;;;;;;6339344;22;20006;-80
2022/10/11 01:36:52;;;;;;;24.48;15.93;;;16.60;92.20;;;;;;6338166;22;19995;-80
2022/10/11 01:39:29;;;;;;;22.27;15.02;;;16.60;92.20;;;;;;6338424;22;20945;-78
2022/10/11 01:41:59;;;;;;;22.55;14.40;;;16.60;92.10;;;;;;6338104;22;20029;-79
2022/10/11 01:44:26;;;;;;;20.48;14.45;;;16.70;92.00;;;;;;6338945;22;20048;-80
2022/10/11 01:46:52;;;;;;;22.65;14.05;;;16.70;92.10;;;;;;6338999;22;20003;-79
2022/10/11 01:49:19;;;;;;;23.17;14.27;;;16.70;91.90;;;;;;6338055;22;19999;-80
2022/10/11 01:51:58;;;;;;;19.05;14.27;;;16.70;91.90;;;;;;6339059;22;20026;-80
2022/10/11 01:54:43;;;;;;;17.80;12.20;;;16.60;92.00;;;;;;6339330;22;20316;-81
2022/10/11 01:58:04;;;;;;;21.52;13.65;;;16.70;91.90;;;;;;6338075;22;20011;-80
2022/10/11 02:00:54;;;;;;;20.13;12.60;;;16.70;91.80;;;;;;6253177;22;20006;-80
2022/10/11 02:03:39;;;;;;;20.38;13.38;;;16.70;91.80;;;;;;6338567;22;20060;-81
2022/10/11 02:06:18;;;;;;;20.15;13.95;;;16.60;91.80;;;;;;6338974;22;20010;-81
2022/10/11 02:08:58;;;;;;;21.02;13.93;;;16.60;91.90;;;;;;6339031;22;20006;-83
2022/10/11 02:11:33;;;;;;;20.73;12.85;;;16.50;92.10;;;;;;6338995;22;19999;-82
2022/10/11 02:14:29;;;;;;;21.65;12.95;;;16.40;92.20;;;;;;6310031;22;20425;-82
2022/10/11 02:17:02;;;;;;;19.92;12.95;;;16.40;92.20;;;;;;6335448;22;20314;-82
2022/10/11 02:19:37;;;;;;;25.58;13.85;;;16.40;92.20;;;;;;6338757;22;20006;-81
2022/10/11 02:22:08;;;;;;;18.25;13.27;;;16.40;92.10;;;;;;6311189;22;20003;-80
2022/10/11 02:24:36;;;;;;;15.25;11.77;;;16.40;92.20;;;;;;6338087;22;19999;-80
2022/10/11 02:27:04;;;;;;;17.92;12.18;;;16.50;92.00;;;;;;6337589;22;20379;-80
2022/10/11 02:29:35;;;;;;;16.25;12.98;;;16.50;92.00;;;;;;6336945;22;20010;-80
2022/10/11 02:32:01;;;;;;;23.05;12.65;;;16.60;91.80;;;;;;6338191;22;20063;-81
2022/10/11 02:34:43;;;;;;;18.83;11.75;;;16.50;91.80;;;;;;6337725;22;20481;-80
2022/10/11 02:37:28;;;;;;;18.83;12.20;;;16.50;91.80;;;;;;6337697;22;20498;-80
2022/10/11 02:40:05;;;;;;;19.70;12.50;;;16.50;91.80;;;;;;6337097;22;20097;-80
2022/10/11 02:42:41;;;;;;;18.42;13.05;;;16.40;92.00;;;;;;6338212;22;20029;-81
2022/10/11 02:45:16;;;;;;;16.38;12.20;;;16.40;91.90;;;;;;6338156;22;20073;-80
2022/10/11 02:47:42;;;;;;;18.55;12.77;;;16.30;91.90;;;;;;6337655;22;20087;-82
2022/10/11 02:50:10;;;;;;;19.95;13.07;;;16.30;92.00;;;;;;6338429;22;20048;-82
2022/10/11 02:52:36;;;;;;;22.67;12.10;;;16.30;92.00;;;;;;6338158;22;20002;-81
2022/10/11 02:55:02;;;;;;;21.83;12.30;;;16.30;92.10;;;;;;6337676;22;19998;-81
2022/10/11 02:57:28;;;;;;;16.27;12.13;;;16.20;92.20;;;;;;6337412;22;20508;-82
2022/10/11 02:59:54;;;;;;;19.23;12.45;;;16.20;92.20;;;;;;6338258;22;20010;-81
2022/10/11 03:02:20;;;;;;;18.88;12.75;;;16.20;92.20;;;;;;6338072;22;20006;-80
2022/10/11 03:04:45;;;;;;;20.80;13.45;;;16.10;92.30;;;;;;6337662;22;20317;-81
2022/10/11 03:07:11;;;;;;;17.38;12.50;;;16.10;92.20;;;;;;6336708;22;20444;-81
2022/10/11 03:09:36;;;;;;;18.92;11.38;;;16.00;92.40;;;;;;6338243;22;20003;-81
2022/10/11 03:12:02;;;;;;;16.77;12.00;;;16.00;92.60;;;;;;6337662;22;20469;-80
2022/10/11 03:14:28;;;;;;;17.88;12.23;;;16.00;92.60;;;;;;6338189;22;20410;-79
2022/10/11 03:16:54;;;;;;;21.05;12.50;;;15.90;92.50;;;;;;6337175;22;20432;-79
2022/10/11 03:19:19;;;;;;;16.90;12.20;;;15.90;92.60;;;;;;6337995;22;20006;-79
2022/10/11 03:21:45;;;;;;;17.83;12.75;;;16.00;92.40;;;;;;6338337;22;20405;-78
2022/10/11 03:24:11;;;;;;;20.27;12.80;;;16.00;92.40;;;;;;6338091;22;20002;-80
2022/10/11 03:26:37;;;;;;;18.42;11.70;;;16.00;92.40;;;;;;6309193;22;20412;-80
2022/10/11 03:29:02;;;;;;;18.80;12.63;;;16.00;92.30;;;;;;6337682;22;20055;-80
2022/10/11 03:31:28;;;;;;;22.83;12.85;;;16.00;92.20;;;;;;6337195;22;19999;-80
2022/10/11 03:33:54;;;;;;;17.10;11.68;;;16.00;92.10;;;;;;6337637;22;20078;-80
2022/10/11 03:36:19;;;;;;;16.65;11.85;;;16.10;92.30;;;;;;6337347;22;19995;-80
2022/10/11 03:38:45;;;;;;;15.85;11.57;;;16.10;92.20;;;;;;6337660;22;20003;-81
2022/10/11 03:41:11;;;;;;;15.20;10.82;;;16.10;92.10;;;;;;6310846;22;20080;-80
2022/10/11 03:43:36;;;;;;;16.10;11.90;;;16.20;92.10;;;;;;6337208;22;20040;-81
2022/10/11 03:46:02;;;;;;;16.42;12.18;;;16.20;92.10;;;;;;6337821;22;20002;-80
2022/10/11 03:48:28;;;;;;;16.60;11.05;;;16.10;92.00;;;;;;6337260;22;20367;-80
2022/10/11 03:50:54;;;;;;;15.55;11.10;;;16.20;92.00;;;;;;6337842;22;20010;-80
2022/10/11 03:53:20;;;;;;;16.80;11.25;;;16.30;92.10;;;;;;6337626;22;19995;-79
2022/10/11 03:55:45;;;;;;;14.23;10.55;;;16.30;92.00;;;;;;6337182;22;20022;-79
2022/10/11 03:58:11;;;;;;;17.13;11.82;;;16.30;91.80;;;;;;6336817;22;20085;-80
2022/10/11 04:00:38;;;;;;;14.90;11.55;;;16.30;91.80;;;;;;6337623;22;20009;-80
2022/10/11 04:03:03;;;;;;;15.85;10.30;;;16.40;92.00;;;;;;6337814;22;20002;-80
2022/10/11 04:05:29;;;;;;;14.25;9.65;;;16.40;91.60;;;;;;6338003;22;20041;-80
2022/10/11 04:07:55;;;;;;;19.83;10.75;;;16.50;91.70;;;;;;6336337;22;20002;-81
2022/10/11 04:10:21;;;;;;;15.32;10.35;;;16.50;91.40;;;;;;6337396;22;20023;-80
2022/10/11 04:12:46;;;;;;;15.30;10.30;;;16.60;91.10;;;;;;6337527;22;20373;-81
2022/10/11 04:15:12;;;;;;;15.00;10.70;;;16.70;91.10;;;;;;6337885;22;20002;-79
2022/10/11 04:17:39;;;;;;;19.70;11.52;;;16.70;90.90;;;;;;6336649;22;20003;-78
2022/10/11 04:20:06;;;;;;;40.38;11.73;;;16.70;90.90;;;;;;6337679;22;20030;-79
2022/10/11 04:22:32;;;;;;;14.00;10.20;;;16.70;91.00;;;;;;6337467;22;19999;-79
2022/10/11 04:24:58;;;;;;;19.13;10.07;;;16.70;91.00;;;;;;6336562;22;19995;-79
2022/10/11 04:27:27;;;;;;;15.98;10.75;;;16.70;91.10;;;;;;6337335;22;20002;-82
2022/10/11 04:29:52;;;;;;;15.98;10.52;;;16.60;90.80;;;;;;6308035;22;20010;-82
2022/10/11 04:32:18;;;;;;;18.70;11.52;;;16.60;91.00;;;;;;6334362;22;19998;-80
2022/10/11 04:34:44;;;;;;;13.18;9.52;;;16.70;90.90;;;;;;6335689;22;20063;-81
2022/10/11 04:37:10;;;;;;;15.98;10.23;;;16.70;91.10;;;;;;6337530;22;19999;-81
2022/10/11 04:39:37;;;;;;;18.63;10.85;;;16.70;91.10;;;;;;6337900;22;19999;-81
2022/10/11 04:42:03;;;;;;;17.15;10.73;;;16.70;91.00;;;;;;6336669;22;20003;-81
2022/10/11 04:44:29;;;;;;;16.45;11.20;;;16.70;90.90;;;;;;6337422;22;20005;-80
2022/10/11 04:46:55;;;;;;;14.95;10.02;;;16.70;90.90;;;;;;6338388;22;20077;-81
2022/10/11 04:49:21;;;;;;;15.40;11.32;;;16.70;90.80;;;;;;6337779;22;20034;-80
2022/10/11 04:51:46;;;;;;;18.15;11.63;;;16.70;90.80;;;;;;6308354;22;19999;-80
2022/10/11 04:54:12;;;;;;;14.88;10.40;;;16.70;91.00;;;;;;6338026;22;20022;-80
2022/10/11 04:56:38;;;;;;;13.30;10.65;;;16.70;90.90;;;;;;6339050;22;20433;-80
2022/10/11 04:59:04;;;;;;;13.88;10.45;;;16.70;91.00;;;;;;6339560;22;20007;-81
2022/10/11 05:01:29;;;;;;;19.60;11.23;;;16.60;90.80;;;;;;6339639;22;20009;-81
2022/10/11 05:03:55;;;;;;;13.07;9.95;;;16.60;90.90;;;;;;6338911;22;19998;-80
2022/10/11 05:06:20;;;;;;;20.55;11.75;;;16.60;91.10;;;;;;6310677;22;20471;-80
2022/10/11 05:08:46;;;;;;;16.73;11.25;;;16.60;91.00;;;;;;6339512;22;19999;-81
2022/10/11 05:11:14;;;;;;;16.17;10.77;;;16.50;91.00;;;;;;6339211;22;20026;-81
2022/10/11 05:13:40;;;;;;;18.05;10.07;;;16.50;91.10;;;;;;6338821;22;20365;-83
2022/10/11 05:16:06;;;;;;;15.95;10.35;;;16.50;91.10;;;;;;6335132;22;20022;-83
2022/10/11 05:18:32;;;;;;;15.45;10.93;;;16.60;90.90;;;;;;6336691;22;20002;-82
2022/10/11 05:21:22;;;;;;;17.30;11.13;;;16.50;90.90;;;;;;6337047;22;20473;-80
2022/10/11 05:23:49;;;;;;;24.17;11.25;;;16.60;91.10;;;;;;6336155;22;20005;-81
2022/10/11 05:26:16;;;;;;;22.00;11.40;;;16.50;91.10;;;;;;6337732;22;20383;-81
2022/10/11 05:28:42;;;;;;;19.33;10.98;;;16.50;91.10;;;;;;6311024;22;20368;-80
2022/10/11 05:31:11;;;;;;;20.15;12.13;;;16.40;91.10;;;;;;6338392;22;19995;-82
2022/10/11 05:33:38;;;;;;;18.63;11.20;;;16.30;91.20;;;;;;6311047;22;19999;-82
2022/10/11 05:36:04;;;;;;;18.60;11.98;;;16.20;91.30;;;;;;6339034;22;19999;-82
2022/10/11 05:38:30;;;;;;;18.83;12.13;;;16.10;91.60;;;;;;6310991;22;20060;-82
2022/10/11 05:41:00;;;;;;;19.58;11.82;;;16.00;91.70;;;;;;6339205;22;19998;-85
2022/10/11 05:43:27;;;;;;;21.17;10.98;;;16.10;91.70;;;;;;6338093;22;20002;-82
2022/10/11 05:45:53;;;;;;;18.33;11.23;;;16.10;91.80;;;;;;6338569;22;20029;-82
2022/10/11 05:48:18;;;;;;;19.60;11.75;;;16.10;91.60;;;;;;6337637;22;20018;-82
2022/10/11 05:50:44;;;;;;;17.80;12.18;;;16.10;91.60;;;;;;6338115;22;20377;-82
2022/10/11 05:53:12;;;;;;;17.63;10.88;;;16.10;91.60;;;;;;6338907;22;19999;-81
2022/10/11 05:55:40;;;;;;;16.67;11.48;;;16.10;91.70;;;;;;6338387;22;20428;-84
2022/10/11 05:58:09;;;;;;;21.70;11.27;;;16.10;91.60;;;;;;6337739;22;20020;-83
2022/10/11 06:00:37;;;;;;;16.92;11.90;;;16.10;91.50;;;;;;6338109;22;19998;-85
2022/10/11 06:03:04;;;;;;;18.60;10.80;;;16.10;91.70;;;;;;6338454;22;20052;-80
2022/10/11 06:05:30;;;;;;;19.85;11.80;;;16.10;91.80;;;;;;6337908;22;20041;-82
2022/10/11 06:07:57;;;;;;;16.52;10.98;;;16.10;91.70;;;;;;6338406;22;20003;-83
2022/10/11 06:10:23;;;;;;;17.67;11.02;;;16.10;91.60;;;;;;6338804;22;19995;-82
2022/10/11 06:12:49;;;;;;;24.85;11.13;;;16.00;91.70;;;;;;6338698;22;20026;-83
2022/10/11 06:15:15;;;;;;;16.45;11.63;;;16.00;91.70;;;;;;6339295;22;19999;-83
2022/10/11 06:17:40;;;;;;;14.65;10.88;;;16.00;91.80;;;;;;6339765;22;20026;-83
2022/10/11 06:20:06;;;;;;;16.80;11.93;;;16.00;91.80;;;;;;6339060;22;20045;-83
2022/10/11 06:22:32;;;;;;;21.27;12.23;;;16.00;91.70;;;;;;6339031;22;19998;-83
2022/10/11 06:24:58;;;;;;;17.13;12.10;;;16.00;91.60;;;;;;6338784;22;20072;-84
2022/10/11 06:27:23;;;;;;;13.38;10.57;;;15.90;91.90;;;;;;6318013;22;20006;-85
2022/10/11 06:29:49;;;;;;;14.82;11.02;;;16.00;92.00;;;;;;6330008;22;20401;-79
2022/10/11 06:32:15;;;;;;;13.38;9.23;;;16.10;92.10;;;;;;6332909;22;20010;-79
2022/10/11 06:34:41;;;;;;;19.02;9.95;;;16.30;91.90;;;;;;6336619;22;20329;-79
2022/10/11 06:37:07;;;;;;;16.92;10.75;;;16.40;91.70;;;;;;6337502;22;20030;-79
2022/10/11 06:39:33;;;;;;;25.55;11.65;;;16.40;91.40;;;;;;6338005;22;20048;-79
2022/10/11 06:41:58;;;;;;;15.02;11.02;;;16.50;91.30;;;;;;6337754;22;20003;-85
2022/10/11 06:44:25;;;;;;;20.90;10.43;;;16.50;91.30;;;;;;6337770;22;20355;-85
2022/10/11 06:46:51;;;;;;;17.60;10.40;;;16.60;91.00;;;;;;6338756;22;20124;-85
2022/10/11 06:49:17;;;;;;;18.98;9.68;;;16.60;91.10;;;;;;6338259;22;20030;-85
2022/10/11 06:51:43;;;;;;;19.40;10.38;;;16.70;90.90;;;;;;6338249;22;20334;-87
2022/10/11 06:54:08;;;;;;;12.95;8.63;;;16.80;91.00;;;;;;6310425;22;20002;-86
2022/10/11 06:56:34;;;;;;;15.18;10.35;;;16.90;91.00;;;;;;6337618;22;20010;-85
2022/10/11 06:59:00;;;;;;;13.15;10.00;;;17.00;90.80;;;;;;6337695;22;20299;-85
2022/10/11 07:01:26;;;;;;;13.88;9.50;;;17.10;90.40;;;;;;6338242;22;20055;-84
2022/10/11 07:03:54;;;;;;;16.88;9.75;;;17.10;90.70;;;;;;6337517;22;20003;-79
2022/10/11 07:06:22;;;;;;;16.42;9.48;;;17.10;90.40;;;;;;6337045;22;20007;-84
2022/10/11 07:08:48;;;;;;;13.93;9.88;;;17.10;90.40;;;;;;6336917;22;20003;-84
2022/10/11 07:11:20;;;;;;;14.45;8.88;;;17.20;90.40;;;;;;6337897;22;19999;-85
2022/10/11 07:13:50;;;;;;;22.60;9.98;;;17.30;90.50;;;;;;6337028;22;20006;-79
2022/10/11 07:16:17;;;;;;;12.35;8.77;;;17.40;90.20;;;;;;6336772;22;20374;-79
2022/10/11 07:18:42;;;;;;;11.32;8.38;;;17.40;90.00;;;;;;6338957;22;20007;-87
2022/10/11 07:21:12;;;;;;;10.35;7.97;;;17.50;90.00;;;;;;6338891;22;20063;-79
2022/10/11 07:23:38;;;;;;;11.68;8.60;;;17.60;90.10;;;;;;6337909;22;20003;-79
2022/10/11 07:26:06;;;;;;;11.45;8.75;;;17.70;90.10;;;;;;6337292;22;20381;-79
2022/10/11 07:28:33;;;;;;;9.15;7.60;;;17.80;88.50;;;;;;6338061;22;20006;-79
2022/10/11 07:31:06;;;;;;;11.32;7.22;;;17.90;87.90;;;;;;6338869;22;20005;-84
2022/10/11 07:33:32;;;;;;;9.77;7.72;;;18.00;87.30;;;;;;6339042;22;20002;-85
2022/10/11 07:35:59;;;;;;;10.48;7.32;;;18.20;87.10;;;;;;6338684;22;19995;-84
2022/10/11 07:38:24;;;;;;;15.13;8.77;;;18.30;86.70;;;;;;6310776;22;20006;-84
2022/10/11 07:40:50;;;;;;;18.33;8.35;;;18.50;86.40;;;;;;6338433;22;20296;-84
2022/10/11 07:43:16;;;;;;;10.55;6.95;;;18.60;86.30;;;;;;6309561;22;20018;-84
2022/10/11 07:45:47;;;;;;;11.13;7.03;;;18.60;85.80;;;;;;6338326;22;20325;-84
2022/10/11 07:48:14;;;;;;;7.85;6.03;;;18.70;85.20;;;;;;6337169;22;20329;-85
2022/10/11 07:50:39;;;;;;;11.30;6.30;;;18.80;84.60;;;;;;6338790;22;19999;-84
2022/10/11 07:53:06;;;;;;;9.75;6.03;;;18.90;84.20;;;;;;6310466;22;20112;-84
2022/10/11 07:55:40;;;;;;;8.45;6.45;;;19.10;84.40;;;;;;6339038;22;20496;-87
2022/10/11 07:58:08;;;;;;;10.00;6.80;;;19.20;84.70;;;;;;6338421;22;20015;-87
2022/10/11 08:00:34;;;;;;;10.65;6.28;;;19.30;84.40;;;;;;6339775;22;19999;-90
2022/10/11 08:03:07;;;;;;;8.48;5.78;;;19.50;83.80;;;;;;6310686;22;20011;-84
2022/10/11 08:05:33;;;;;;;10.50;6.85;;;19.50;83.60;;;;;;6325793;22;20082;-83
2022/10/11 08:07:59;;;;;;;8.35;5.68;;;19.60;83.00;;;;;;6334219;22;20026;-79
2022/10/11 08:10:26;;;;;;;10.48;6.32;;;19.70;83.10;;;;;;6334971;22;20093;-79
2022/10/11 08:12:52;;;;;;;9.82;6.30;;;19.80;83.10;;;;;;6308821;22;20014;-79
2022/10/11 08:15:19;;;;;;;10.18;5.95;;;19.90;82.50;;;;;;6337942;22;20122;-81
2022/10/11 08:17:45;;;;;;;10.85;5.22;;;20.00;82.20;;;;;;6337437;22;19999;-79
2022/10/11 08:20:11;;;;;;;8.35;5.57;;;20.10;81.90;;;;;;6337945;22;20081;-81
2022/10/11 08:22:38;;;;;;;7.75;5.80;;;20.20;81.60;;;;;;6335597;22;20063;-81
2022/10/11 08:25:04;;;;;;;11.60;6.63;;;20.30;80.70;;;;;;6337398;22;20476;-79
2022/10/11 08:27:30;;;;;;;14.45;5.53;;;20.40;80.40;;;;;;6337659;22;19995;-79
2022/10/11 08:29:55;;;;;;;7.88;5.20;;;20.50;80.50;;;;;;6340621;22;20052;-87
2022/10/11 08:32:21;;;;;;;7.35;5.65;;;20.60;80.60;;;;;;6312300;22;20077;-80
2022/10/11 08:34:47;;;;;;;11.80;6.63;;;20.70;80.00;;;;;;6337998;22;19995;-86
2022/10/11 08:37:13;;;;;;;8.70;5.63;;;20.90;79.20;;;;;;6338242;22;19999;-80
2022/10/11 08:39:39;;;;;;;8.48;5.70;;;20.90;78.50;;;;;;6338702;22;20392;-80
2022/10/11 08:42:35;;;;;;;9.32;5.40;;;21.00;79.60;;;;;;6338360;22;20002;-81
2022/10/11 08:45:16;;;;;;;7.03;4.90;;;21.20;78.50;;;;;;6337929;22;20022;-81
2022/10/11 08:47:43;;;;;;;7.93;5.60;;;21.30;78.70;;;;;;6284112;22;20044;-86
2022/10/11 08:50:22;;;;;;;7.95;5.00;;;21.50;78.10;;;;;;6338665;22;20086;-87
2022/10/11 08:52:58;;;;;;;7.35;5.05;;;21.70;77.60;;;;;;6339392;22;20021;-84
2022/10/11 08:55:42;;;;;;;10.50;6.43;;;21.80;77.90;;;;;;6311454;22;20030;-87
2022/10/11 08:58:13;;;;;;;8.82;5.53;;;21.90;75.40;;;;;;6339288;22;20037;-84
2022/10/11 09:00:40;;;;;;;7.93;5.40;;;21.90;76.50;;;;;;6311532;22;20401;-84
2022/10/11 09:03:41;;;;;;;7.97;4.75;;;22.00;76.30;;;;;;6311810;22;20310;-86
2022/10/11 09:06:23;;;;;;;8.63;5.20;;;22.10;76.00;;;;;;6338090;22;20078;-84
2022/10/11 09:09:36;;;;;;;6.13;5.20;;;22.30;76.30;;;;;;6310740;22;20007;-87
2022/10/11 09:12:09;;;;;;;6.28;5.28;;;22.50;75.80;;;;;;6280239;22;20039;-85
2022/10/11 09:15:13;;;;;;;9.88;6.45;;;22.60;75.00;;;;;;6338501;22;20022;-81
2022/10/11 09:18:00;;;;;;;8.13;5.18;;;22.60;72.00;;;;;;6287274;22;20007;-81
2022/10/11 09:21:09;;;;;;;11.57;4.45;;;22.60;73.70;;;;;;6311374;22;20038;-80
2022/10/11 09:24:05;;;;;;;7.05;4.53;;;22.80;73.70;;;;;;6313320;22;20007;-79
2022/10/11 09:26:58;;;;;;;8.45;4.75;;;23.00;73.30;;;;;;6337516;22;20018;-87
2022/10/11 09:29:57;;;;;;;7.10;5.25;;;23.10;72.80;;;;;;6309389;22;20317;-85
2022/10/11 09:32:29;;;;;;;5.93;4.60;;;23.30;71.30;;;;;;6310849;22;20003;-85
2022/10/11 09:35:07;;;;;;;7.80;4.30;;;23.40;72.30;;;;;;6337904;22;20089;-85
2022/10/11 09:37:55;;;;;;;6.03;4.35;;;23.60;72.30;;;;;;6337763;22;20050;-80
2022/10/11 09:40:27;;;;;;;8.60;4.55;;;23.70;71.60;;;;;;6337722;22;20006;-80
2022/10/11 09:42:53;;;;;;;10.60;5.70;;;23.80;71.10;;;;;;6308579;22;20007;-80
2022/10/11 09:45:20;;;;;;;9.35;5.15;;;23.90;68.90;;;;;;6337836;22;20006;-85
2022/10/11 09:47:48;;;;;;;7.32;4.32;;;23.90;69.50;;;;;;6337342;22;20033;-86
2022/10/11 09:50:20;;;;;;;9.57;4.78;;;24.10;70.10;;;;;;6338088;22;19995;-85
2022/10/11 09:52:52;;;;;;;6.03;4.07;;;24.20;69.80;;;;;;6337579;22;19996;-85
2022/10/11 09:55:35;;;;;;;10.85;4.68;;;24.30;69.50;;;;;;6310689;22;20329;-86
2022/10/11 09:58:03;;;;;;;6.57;4.05;;;24.40;68.00;;;;;;6339278;22;20007;-86
2022/10/11 10:00:32;;;;;;;5.78;4.55;;;24.40;68.70;;;;;;6311101;22;20003;-86
2022/10/11 10:03:01;;;;;;;8.35;4.28;;;24.60;68.80;;;;;;6339982;22;20128;-87
2022/10/11 10:05:28;;;;;;;12.18;5.50;;;24.70;68.20;;;;;;6339558;22;20425;-86
2022/10/11 10:08:09;;;;;;;9.85;4.82;;;24.80;66.90;;;;;;6311547;22;20354;-86
2022/10/11 10:10:42;;;;;;;6.80;4.47;;;24.80;67.30;;;;;;6339036;22;19999;-85
2022/10/11 10:13:43;;;;;;;6.35;4.85;;;24.90;67.70;;;;;;6339229;22;19998;-84
2022/10/11 10:16:18;;;;;;;6.95;4.25;;;24.90;63.90;;;;;;6338677;22;20052;-85
2022/10/11 10:18:54;;;;;;;6.03;4.30;;;24.90;65.40;;;;;;6338880;22;20002;-85
2022/10/11 10:21:32;;;;;;;7.90;4.05;;;25.00;65.90;;;;;;6310917;22;20349;-85
2022/10/11 10:24:02;;;;;;;7.10;4.38;;;25.10;66.40;;;;;;6337148;22;20034;-85
2022/10/11 10:26:29;;;;;;;4.97;3.83;;;25.40;66.70;;;;;;6338193;22;20045;-80
2022/10/11 10:28:55;;;;;;;4.85;3.63;;;25.50;65.40;;;;;;6338100;22;19999;-80
2022/10/11 10:31:29;;;;;;;7.78;4.00;;;25.70;65.40;;;;;;6337819;22;19999;-80
2022/10/11 10:33:56;;;;;;;7.05;3.63;;;25.80;65.00;;;;;;6337431;22;20001;-80
2022/10/11 10:36:45;;;;;;;5.80;4.13;;;26.00;64.40;;;;;;6309356;22;20009;-81
2022/10/11 10:39:40;;;;;;;7.32;3.58;;;26.10;64.50;;;;;;6338136;22;19999;-81
2022/10/11 10:42:15;;;;;;;5.50;3.47;;;26.20;63.60;;;;;;6324909;22;20056;-81
2022/10/11 10:44:42;;;;;;;6.85;3.50;;;26.30;63.60;;;;;;6311377;22;20052;-81
2022/10/11 10:47:24;;;;;;;5.15;3.38;;;26.40;63.30;;;;;;6338134;22;20360;-81
2022/10/11 10:50:10;;;;;;;6.32;3.45;;;26.50;61.10;;;;;;6336356;22;20006;-82
2022/10/11 10:52:53;;;;;;;6.05;3.72;;;26.50;61.30;;;;;;6336579;22;20024;-80
2022/10/11 10:55:40;;;;;;;8.52;3.00;;;26.50;58.90;;;;;;6340422;22;20006;-81
2022/10/11 10:58:24;;;;;;;6.60;3.25;;;26.60;61.10;;;;;;6340849;22;20025;-80
2022/10/11 11:01:04;;;;;;;5.38;3.05;;;26.80;60.00;;;;;;6348930;22;20054;-80
2022/10/11 11:03:55;;;;;;;5.80;4.10;;;26.90;60.00;;;;;;6347263;22;19995;-84
2022/10/11 11:06:27;;;;;;;5.70;4.13;;;26.80;58.20;;;;;;6360673;22;19995;-86
2022/10/11 11:08:56;;;;;;;7.90;3.58;;;26.60;58.70;;;;;;6351254;22;19998;-85
2022/10/11 11:11:35;;;;;;;3.92;3.33;;;26.50;59.50;;;;;;6340605;22;19995;-86
2022/10/11 11:14:25;;;;;;;6.53;3.58;;;26.60;60.50;;;;;;6339317;22;19998;-85
2022/10/11 11:17:11;;;;;;;6.35;3.95;;;26.70;59.80;;;;;;6312144;22;20385;-85
2022/10/11 11:19:43;;;;;;;7.10;4.25;;;26.90;59.70;;;;;;6337131;22;20002;-82
2022/10/11 11:22:30;;;;;;;7.43;4.22;;;27.00;58.20;;;;;;6337413;22;20007;-84
2022/10/11 11:25:05;;;;;;;8.05;3.88;;;27.00;57.80;;;;;;6311331;22;20002;-83
2022/10/11 11:27:50;;;;;;;7.45;4.38;;;27.00;56.50;;;;;;6339794;22;20005;-82
2022/10/11 11:30:21;;;;;;;9.20;4.60;;;27.50;57.90;;;;;;6336910;22;20011;-85
2022/10/11 11:33:24;;;;;;;6.97;4.88;;;27.90;57.90;;;;;;6337460;22;20452;-84
2022/10/11 11:36:00;;;;;;;6.28;4.05;;;28.30;57.10;;;;;;6338165;22;20003;-84
2022/10/11 11:38:50;;;;;;;7.65;4.35;;;28.50;54.20;;;;;;6337337;22;20312;-82
2022/10/11 11:41:21;;;;;;;;;;;28.50;54.40;;;;;;6338402;22;20030;-79
2022/10/11 11:44:05;;;;;;;7.47;4.65;;;28.50;54.50;;;;;;6309971;22;19948;-82
2022/10/11 11:46:50;;;;;;;8.68;4.30;;;28.40;54.00;;;;;;6336776;22;20070;-81
2022/10/11 11:49:26;;;;;;;6.88;4.00;;;28.70;54.40;;;;;;6337640;22;20007;-81
2022/10/11 11:51:53;;;;;;;7.00;3.70;;;29.10;54.40;;;;;;6338181;22;20002;-80
2022/10/11 11:54:57;;;;;;;6.05;3.63;;;29.40;53.20;;;;;;6309741;22;20282;-81
2022/10/11 11:57:26;;;;;;;7.15;4.10;;;29.80;52.80;;;;;;6272539;22;20370;-81
2022/10/11 12:00:13;;;;;;;10.27;4.72;;;29.70;51.40;;;;;;6272013;22;20019;-81
2022/10/11 12:02:58;;;;;;;7.82;3.80;;;29.30;51.50;;;;;;6315142;22;20010;-80
2022/10/11 12:05:29;;;;;;;9.75;3.80;;;29.40;53.40;;;;;;6339865;22;20010;-79
2022/10/11 12:07:58;;;;;;;6.80;3.92;;;29.40;54.10;;;;;;6340328;22;20044;-80
2022/10/11 12:10:26;;;;;;;10.63;4.47;;;29.40;52.70;;;;;;6340212;22;20078;-80
2022/10/11 12:13:35;;;;;;;10.43;4.50;;;29.40;52.80;;;;;;6340837;22;19999;-85
2022/10/11 12:16:13;;;;;;;7.03;3.47;;;28.90;51.90;;;;;;6333541;22;20081;-84
2022/10/11 12:19:01;;;;;;;7.57;4.28;;;28.40;52.50;;;;;;6340959;22;19999;-84
2022/10/11 12:21:31;;;;;;;8.38;3.60;;;28.10;54.00;;;;;;6339907;22;20048;-82
2022/10/11 12:23:59;;;;;;;6.50;3.72;;;28.00;56.60;;;;;;6339339;22;20657;-81
2022/10/11 12:26:28;;;;;;;7.43;4.60;;;27.60;54.60;;;;;;6339513;22;20007;-81
2022/10/11 12:29:02;;;;;;;7.13;4.78;;;27.40;55.00;;;;;;6337599;22;20003;-81
2022/10/11 12:31:31;;;;;;;11.32;4.18;;;27.20;55.90;;;;;;6311579;22;19999;-81
2022/10/11 12:34:00;;;;;;;8.40;4.00;;;27.10;57.20;;;;;;6339218;22;20425;-81
2022/10/11 12:36:39;;;;;;;8.02;4.20;;;27.20;57.50;;;;;;6340206;22;20028;-81
2022/10/11 12:39:17;;;;;;;9.38;4.18;;;27.10;56.40;;;;;;6340680;22;19999;-81
2022/10/11 12:41:46;;;;;;;15.32;4.60;;;27.00;55.60;;;;;;6340875;22;20409;-81
2022/10/11 12:44:17;;;;;;;7.03;4.32;;;26.90;56.10;;;;;;6340411;22;20021;-82
2022/10/11 12:46:49;;;;;;;11.02;5.07;;;27.00;55.90;;;;;;6312031;22;20470;-82
2022/10/11 12:49:36;;;;;;;7.63;4.38;;;27.20;58.70;;;;;;6340282;22;20409;-81
2022/10/11 12:52:43;;;;;;;8.45;4.10;;;27.20;55.40;;;;;;6340397;22;20003;-81
2022/10/11 12:55:28;;;;;;;7.25;4.40;;;27.30;54.90;;;;;;6337369;22;20026;-81
2022/10/11 12:58:15;;;;;;;7.20;4.05;;;27.20;54.30;;;;;;6339655;22;20011;-81
2022/10/11 13:00:49;;;;;;;7.82;4.20;;;26.90;54.50;;;;;;6312169;22;20086;-81